createdAt,value
2022-08-31T00:00:41.686Z,31.26
2022-08-31T00:01:41.683Z,33.68
2022-08-31T00:02:41.660Z,32.23
2022-08-31T00:03:41.650Z,31.42
2022-08-31T00:04:41.715Z,32.07
2022-08-31T00:05:41.630Z,32.39
2022-08-31T00:06:41.609Z,53.50
2022-08-31T00:07:41.598Z,38.67
2022-08-31T00:08:41.584Z,34.64
2022-08-31T00:09:41.571Z,32.55
2022-08-31T00:10:43.281Z,36.42
2022-08-31T00:11:41.557Z,40.12
2022-08-31T00:12:41.535Z,32.55
2022-08-31T00:13:41.529Z,53.33
2022-08-31T00:14:41.511Z,35.13
2022-08-31T00:15:41.497Z,32.71
2022-08-31T00:16:41.548Z,31.42
2022-08-31T00:17:41.502Z,31.90
2022-08-31T00:18:41.459Z,32.55
2022-08-31T00:19:41.450Z,33.52
2022-08-31T00:20:41.438Z,36.25
2022-08-31T00:21:41.422Z,60.59
2022-08-31T00:22:41.408Z,33.68
2022-08-31T00:23:41.410Z,36.42
2022-08-31T00:24:41.381Z,44.31
2022-08-31T00:25:41.370Z,31.74
2022-08-31T00:26:41.357Z,36.74
2022-08-31T00:27:41.346Z,31.10
2022-08-31T00:28:41.334Z,54.30
2022-08-31T00:29:41.336Z,49.79
2022-08-31T00:30:41.306Z,32.23
2022-08-31T00:31:41.339Z,40.12
2022-08-31T00:32:41.284Z,40.77
2022-08-31T00:33:41.271Z,34.80
2022-08-31T00:34:41.271Z,55.75
2022-08-31T00:35:41.255Z,39.32
2022-08-31T00:36:41.236Z,33.35
2022-08-31T00:37:41.218Z,35.45
2022-08-31T00:38:41.208Z,32.07
2022-08-31T00:39:41.193Z,31.74
2022-08-31T00:40:45.063Z,32.39
2022-08-31T00:41:41.181Z,53.17
2022-08-31T00:42:41.156Z,32.87
2022-08-31T00:43:41.144Z,39.32
2022-08-31T00:44:41.135Z,42.06
2022-08-31T00:45:41.179Z,31.58
2022-08-31T00:46:41.106Z,35.45
2022-08-31T00:47:41.111Z,31.90
2022-08-31T00:48:41.080Z,33.03
2022-08-31T00:49:41.066Z,31.74
2022-08-31T00:50:41.058Z,31.10
2022-08-31T00:51:41.040Z,32.87
2022-08-31T00:52:41.029Z,47.21
2022-08-31T00:53:41.026Z,32.71
2022-08-31T00:54:41.009Z,39.64
2022-08-31T00:55:40.989Z,34.97
2022-08-31T00:56:40.984Z,31.74
2022-08-31T00:57:40.971Z,34.80
2022-08-31T00:58:40.959Z,33.35
2022-08-31T00:59:40.950Z,50.11
2022-08-31T01:00:40.950Z,52.21
2022-08-31T01:01:40.997Z,31.90
2022-08-31T01:02:40.942Z,32.07
2022-08-31T01:03:40.890Z,31.58
2022-08-31T01:04:40.878Z,35.93
2022-08-31T01:05:40.874Z,44.31
2022-08-31T01:06:40.855Z,31.74
2022-08-31T01:07:40.839Z,35.93
2022-08-31T01:08:40.826Z,34.64
2022-08-31T01:09:40.816Z,42.22
2022-08-31T01:10:40.814Z,37.22
2022-08-31T01:11:40.798Z,31.26
2022-08-31T01:12:40.778Z,33.84
2022-08-31T01:13:40.767Z,44.47
2022-08-31T01:14:40.754Z,32.23
2022-08-31T01:15:40.741Z,32.07
2022-08-31T01:16:40.788Z,36.25
2022-08-31T01:17:40.727Z,34.97
2022-08-31T01:18:40.705Z,33.84
2022-08-31T01:19:40.726Z,32.07
2022-08-31T01:20:45.816Z,32.39
2022-08-31T01:21:40.672Z,34.16
2022-08-31T01:22:40.660Z,31.42
2022-08-31T01:23:40.656Z,32.23
2022-08-31T01:24:40.627Z,31.42
2022-08-31T01:25:40.613Z,31.26
2022-08-31T01:26:40.604Z,31.42
2022-08-31T01:27:40.594Z,38.03
2022-08-31T01:28:40.578Z,44.31
2022-08-31T01:29:40.579Z,42.06
2022-08-31T01:30:40.554Z,31.58
2022-08-31T01:31:40.634Z,30.94
2022-08-31T01:32:40.531Z,43.99
2022-08-31T01:33:40.521Z,57.52
2022-08-31T01:34:40.507Z,31.26
2022-08-31T01:35:40.501Z,40.28
2022-08-31T01:36:40.481Z,41.57
2022-08-31T01:37:40.467Z,31.58
2022-08-31T01:38:40.453Z,31.42
2022-08-31T01:39:40.439Z,32.07
2022-08-31T01:40:40.474Z,33.03
2022-08-31T01:41:40.425Z,31.90
2022-08-31T01:42:40.400Z,38.51
2022-08-31T01:43:40.390Z,38.03
2022-08-31T01:44:40.387Z,31.42
2022-08-31T01:45:40.363Z,56.56
2022-08-31T01:46:40.436Z,53.50
2022-08-31T01:47:40.372Z,34.00
2022-08-31T01:48:41.565Z,44.31
2022-08-31T01:49:40.317Z,31.74
2022-08-31T01:50:40.307Z,32.07
2022-08-31T01:51:40.291Z,34.00
2022-08-31T01:52:40.276Z,31.74
2022-08-31T01:53:40.277Z,31.58
2022-08-31T01:54:40.254Z,43.34
2022-08-31T01:55:40.245Z,44.96
2022-08-31T01:56:40.229Z,31.74
2022-08-31T01:57:40.214Z,31.74
2022-08-31T01:58:40.201Z,48.50
2022-08-31T01:59:40.198Z,34.64
2022-08-31T02:00:40.193Z,31.90
2022-08-31T02:01:40.316Z,32.23
2022-08-31T02:02:40.216Z,36.58
2022-08-31T02:03:40.136Z,45.92
2022-08-31T02:04:40.125Z,34.00
2022-08-31T02:05:40.122Z,43.02
2022-08-31T02:06:40.143Z,33.03
2022-08-31T02:07:40.108Z,50.76
2022-08-31T02:08:40.111Z,31.74
2022-08-31T02:09:40.061Z,32.23
2022-08-31T02:10:40.055Z,32.71
2022-08-31T02:11:40.090Z,40.77
2022-08-31T02:12:40.023Z,32.55
2022-08-31T02:13:40.013Z,56.24
2022-08-31T02:14:40.002Z,31.74
2022-08-31T02:15:39.986Z,31.74
2022-08-31T02:16:40.041Z,47.37
2022-08-31T02:17:39.974Z,31.74
2022-08-31T02:18:39.971Z,34.80
2022-08-31T02:19:39.938Z,58.01
2022-08-31T02:20:39.943Z,57.04
2022-08-31T02:21:39.916Z,43.02
2022-08-31T02:22:39.932Z,31.74
2022-08-31T02:23:39.899Z,31.42
2022-08-31T02:24:39.875Z,33.35
2022-08-31T02:25:39.866Z,38.99
2022-08-31T02:26:39.853Z,48.18
2022-08-31T02:27:39.854Z,32.39
2022-08-31T02:28:39.829Z,35.13
2022-08-31T02:29:39.826Z,31.90
2022-08-31T02:30:39.803Z,35.45
2022-08-31T02:31:39.894Z,44.47
2022-08-31T02:32:39.778Z,42.86
2022-08-31T02:33:39.766Z,33.19
2022-08-31T02:34:39.753Z,34.97
2022-08-31T02:35:39.760Z,41.41
2022-08-31T02:36:39.727Z,38.19
2022-08-31T02:37:39.718Z,38.83
2022-08-31T02:38:39.706Z,33.68
2022-08-31T02:39:39.693Z,47.05
2022-08-31T02:40:39.737Z,33.52
2022-08-31T02:41:39.682Z,47.53
2022-08-31T02:42:53.449Z,39.96
2022-08-31T02:43:39.650Z,58.01
2022-08-31T02:44:39.628Z,51.72
2022-08-31T02:45:39.619Z,37.54
2022-08-31T02:46:39.677Z,32.87
2022-08-31T02:47:39.603Z,51.56
2022-08-31T02:48:39.584Z,52.05
2022-08-31T02:49:39.567Z,39.32
2022-08-31T02:50:39.559Z,36.09
2022-08-31T02:51:39.541Z,41.89
2022-08-31T02:52:39.528Z,33.84
2022-08-31T02:53:39.530Z,37.06
2022-08-31T02:54:39.507Z,48.34
2022-08-31T02:55:39.494Z,56.72
2022-08-31T02:56:39.478Z,51.24
2022-08-31T02:57:39.470Z,34.97
2022-08-31T02:58:39.455Z,39.48
2022-08-31T02:59:39.458Z,37.54
2022-08-31T03:00:39.430Z,34.48
2022-08-31T03:01:39.437Z,47.86
2022-08-31T03:02:39.457Z,33.03
2022-08-31T03:03:39.421Z,50.76
2022-08-31T03:04:39.383Z,36.09
2022-08-31T03:05:39.380Z,51.88
2022-08-31T03:06:39.358Z,40.77
2022-08-31T03:07:39.366Z,38.67
2022-08-31T03:08:39.335Z,49.31
2022-08-31T03:09:39.324Z,41.09
2022-08-31T03:10:39.307Z,40.77
2022-08-31T03:11:39.307Z,39.64
2022-08-31T03:12:39.284Z,45.76
2022-08-31T03:13:39.274Z,41.09
2022-08-31T03:14:39.260Z,48.66
2022-08-31T03:15:39.359Z,43.02
2022-08-31T03:16:39.243Z,40.61
2022-08-31T03:17:39.247Z,38.83
2022-08-31T03:18:39.209Z,44.15
2022-08-31T03:19:39.225Z,38.35
2022-08-31T03:20:39.185Z,41.25
2022-08-31T03:21:39.173Z,42.70
2022-08-31T03:22:39.187Z,52.69
2022-08-31T03:23:39.191Z,40.61
2022-08-31T03:24:39.136Z,42.70
2022-08-31T03:25:39.581Z,56.56
2022-08-31T03:26:39.115Z,42.22
2022-08-31T03:27:39.098Z,50.76
2022-08-31T03:28:39.084Z,53.17
2022-08-31T03:29:39.088Z,49.31
2022-08-31T03:30:39.063Z,46.57
2022-08-31T03:31:39.128Z,48.98
2022-08-31T03:32:39.043Z,52.85
2022-08-31T03:33:39.024Z,45.28
2022-08-31T03:34:39.011Z,54.62
2022-08-31T03:35:39.009Z,49.47
2022-08-31T03:36:38.993Z,51.24
2022-08-31T03:37:38.975Z,59.14
2022-08-31T03:38:38.961Z,45.60
2022-08-31T03:39:38.955Z,48.18
2022-08-31T03:40:39.037Z,60.75
2022-08-31T03:41:38.957Z,43.18
2022-08-31T03:42:38.934Z,49.95
2022-08-31T03:43:38.904Z,46.89
2022-08-31T03:44:38.894Z,43.67
2022-08-31T03:45:38.879Z,47.37
2022-08-31T03:46:38.906Z,58.97
2022-08-31T03:47:44.800Z,36.42
2022-08-31T03:48:38.842Z,43.99
2022-08-31T03:49:38.832Z,57.69
2022-08-31T03:50:38.813Z,42.38
2022-08-31T03:51:38.801Z,37.22
2022-08-31T03:52:38.789Z,52.53
2022-08-31T03:53:38.792Z,43.83
2022-08-31T03:54:38.764Z,42.06
2022-08-31T03:55:38.711Z,54.95
2022-08-31T03:56:38.697Z,58.81
2022-08-31T03:57:38.676Z,55.43
2022-08-31T03:58:38.661Z,56.40
2022-08-31T03:59:38.660Z,45.28
2022-08-31T04:00:38.640Z,64.61
2022-08-31T04:01:38.677Z,57.52
2022-08-31T04:02:38.640Z,43.51
2022-08-31T04:03:38.598Z,39.96
2022-08-31T04:04:38.639Z,48.18
2022-08-31T04:05:38.638Z,47.86
2022-08-31T04:06:38.612Z,58.01
2022-08-31T04:07:42.462Z,45.44
2022-08-31T04:08:38.590Z,40.77
2022-08-31T04:09:38.578Z,44.31
2022-08-31T04:10:38.564Z,52.69
2022-08-31T04:11:44.390Z,46.41
2022-08-31T04:12:38.544Z,51.24
2022-08-31T04:13:38.529Z,44.79
2022-08-31T04:14:38.513Z,42.38
2022-08-31T04:15:38.537Z,49.15
2022-08-31T04:16:38.490Z,49.95
2022-08-31T04:17:38.492Z,44.31
2022-08-31T04:18:38.473Z,47.86
2022-08-31T04:19:38.472Z,55.75
2022-08-31T04:20:38.442Z,52.85
2022-08-31T04:21:38.458Z,57.04
2022-08-31T04:22:38.415Z,56.40
2022-08-31T04:23:38.422Z,47.86
2022-08-31T04:24:38.335Z,49.31
2022-08-31T04:25:38.379Z,58.33
2022-08-31T04:26:38.325Z,42.86
2022-08-31T04:27:38.323Z,48.50
2022-08-31T04:28:38.290Z,58.49
2022-08-31T04:29:38.291Z,42.38
2022-08-31T04:30:38.321Z,49.63
2022-08-31T04:31:38.263Z,58.01
2022-08-31T04:32:38.236Z,52.21
2022-08-31T04:33:38.229Z,45.28
2022-08-31T04:34:38.217Z,48.34
2022-08-31T04:35:38.210Z,51.40
2022-08-31T04:36:38.194Z,61.07
2022-08-31T04:37:38.175Z,52.85
2022-08-31T04:38:38.169Z,55.43
2022-08-31T04:39:50.478Z,54.14
2022-08-31T04:40:38.212Z,59.94
2022-08-31T04:41:38.140Z,44.63
2022-08-31T04:42:38.114Z,54.79
2022-08-31T04:43:38.099Z,57.20
2022-08-31T04:44:38.092Z,43.67
2022-08-31T04:45:38.118Z,45.44
2022-08-31T04:46:38.067Z,58.49
2022-08-31T04:47:38.071Z,47.05
2022-08-31T04:48:38.040Z,57.20
2022-08-31T04:49:38.050Z,42.70
2022-08-31T04:50:42.288Z,42.38
2022-08-31T04:51:38.005Z,49.15
2022-08-31T04:52:37.999Z,52.85
2022-08-31T04:53:37.985Z,46.08
2022-08-31T04:54:37.966Z,44.63
2022-08-31T04:55:37.950Z,62.36
2022-08-31T04:56:37.941Z,49.95
2022-08-31T04:57:37.926Z,48.82
2022-08-31T04:58:37.919Z,55.43
2022-08-31T04:59:37.911Z,59.62
2022-08-31T05:00:37.887Z,55.27
2022-08-31T05:01:42.842Z,55.91
2022-08-31T05:02:37.918Z,61.07
2022-08-31T05:03:37.854Z,56.72
2022-08-31T05:04:37.842Z,59.14
2022-08-31T05:05:37.839Z,44.96
2022-08-31T05:06:37.813Z,43.51
2022-08-31T05:07:37.806Z,58.17
2022-08-31T05:08:37.790Z,54.62
2022-08-31T05:09:37.791Z,57.36
2022-08-31T05:10:37.766Z,61.55
2022-08-31T05:11:37.765Z,48.66
2022-08-31T05:12:37.765Z,60.59
2022-08-31T05:13:37.726Z,59.78
2022-08-31T05:14:37.715Z,46.57
2022-08-31T05:15:37.756Z,50.11
2022-08-31T05:16:37.691Z,61.55
2022-08-31T05:17:37.703Z,46.25
2022-08-31T05:18:37.667Z,54.30
2022-08-31T05:19:41.004Z,60.10
2022-08-31T05:20:37.639Z,50.60
2022-08-31T05:21:37.626Z,57.85
2022-08-31T05:22:37.618Z,56.24
2022-08-31T05:23:37.613Z,43.99
2022-08-31T05:24:37.593Z,59.46
2022-08-31T05:25:37.576Z,59.30
2022-08-31T05:26:37.569Z,48.34
2022-08-31T05:27:37.549Z,57.20
2022-08-31T05:28:37.542Z,54.46
2022-08-31T05:29:37.538Z,46.89
2022-08-31T05:30:37.586Z,54.79
2022-08-31T05:31:37.501Z,63.16
2022-08-31T05:32:37.879Z,52.85
2022-08-31T05:33:37.479Z,48.66
2022-08-31T05:34:37.463Z,56.88
2022-08-31T05:35:37.468Z,57.20
2022-08-31T05:36:37.443Z,58.97
2022-08-31T05:37:37.424Z,60.59
2022-08-31T05:38:37.417Z,52.85
2022-08-31T05:39:37.395Z,42.86
2022-08-31T05:40:37.452Z,56.24
2022-08-31T05:41:37.377Z,48.66
2022-08-31T05:42:37.370Z,55.27
2022-08-31T05:43:37.342Z,59.94
2022-08-31T05:44:37.328Z,53.01
2022-08-31T05:45:37.320Z,47.05
2022-08-31T05:46:37.354Z,61.39
2022-08-31T05:47:37.303Z,58.17
2022-08-31T05:48:37.278Z,57.20
2022-08-31T05:49:37.276Z,61.23
2022-08-31T05:50:37.254Z,50.60
2022-08-31T05:51:38.538Z,59.46
2022-08-31T05:52:37.233Z,61.55
2022-08-31T05:53:37.237Z,66.55
2022-08-31T05:54:37.206Z,60.26
2022-08-31T05:55:37.206Z,60.75
2022-08-31T05:56:37.176Z,49.31
2022-08-31T05:57:37.198Z,59.62
2022-08-31T05:58:37.152Z,60.26
2022-08-31T05:59:37.148Z,50.60
2022-08-31T06:00:37.143Z,58.17
2022-08-31T06:01:37.153Z,59.78
2022-08-31T06:02:37.103Z,48.66
2022-08-31T06:03:37.089Z,57.04
2022-08-31T06:04:37.078Z,59.94
2022-08-31T06:05:37.094Z,51.40
2022-08-31T06:06:37.075Z,55.59
2022-08-31T06:07:37.060Z,59.30
2022-08-31T06:08:37.027Z,50.43
2022-08-31T06:09:37.056Z,63.33
2022-08-31T06:10:37.011Z,57.20
2022-08-31T06:11:36.999Z,50.60
2022-08-31T06:12:36.976Z,59.62
2022-08-31T06:13:36.966Z,63.65
2022-08-31T06:14:36.960Z,54.30
2022-08-31T06:15:39.414Z,52.53
2022-08-31T06:16:36.992Z,56.56
2022-08-31T06:17:36.923Z,54.46
2022-08-31T06:18:36.909Z,55.27
2022-08-31T06:19:36.910Z,64.13
2022-08-31T06:20:36.880Z,54.79
2022-08-31T06:21:36.864Z,43.83
2022-08-31T06:22:36.880Z,60.91
2022-08-31T06:23:36.865Z,56.56
2022-08-31T06:24:37.469Z,55.43
2022-08-31T06:25:36.817Z,60.10
2022-08-31T06:26:36.802Z,52.37
2022-08-31T06:27:36.814Z,58.97
2022-08-31T06:28:36.812Z,59.78
2022-08-31T06:29:36.788Z,44.79
2022-08-31T06:30:47.797Z,59.62
2022-08-31T06:31:36.787Z,61.07
2022-08-31T06:32:36.729Z,48.98
2022-08-31T06:33:36.715Z,56.88
2022-08-31T06:34:36.701Z,60.75
2022-08-31T06:35:36.821Z,48.18
2022-08-31T06:36:36.722Z,58.81
2022-08-31T06:37:36.703Z,59.78
2022-08-31T06:38:36.699Z,44.31
2022-08-31T06:39:36.647Z,60.10
2022-08-31T06:40:36.702Z,58.49
2022-08-31T06:41:37.089Z,46.25
2022-08-31T06:42:36.605Z,56.56
2022-08-31T06:43:36.592Z,60.42
2022-08-31T06:44:36.597Z,55.11
2022-08-31T06:45:36.578Z,42.38
2022-08-31T06:46:36.638Z,61.55
2022-08-31T06:47:36.549Z,56.40
2022-08-31T06:48:36.529Z,51.56
2022-08-31T06:49:36.517Z,60.59
2022-08-31T06:50:36.510Z,54.46
2022-08-31T06:51:36.511Z,57.69
2022-08-31T06:52:38.939Z,58.01
2022-08-31T06:53:36.529Z,53.82
2022-08-31T06:54:36.455Z,50.27
2022-08-31T06:55:36.440Z,59.46
2022-08-31T06:56:36.468Z,47.37
2022-08-31T06:57:36.439Z,47.86
2022-08-31T06:58:36.442Z,59.46
2022-08-31T06:59:36.409Z,45.28
2022-08-31T07:00:36.413Z,59.46
2022-08-31T07:01:36.541Z,61.07
2022-08-31T07:02:36.428Z,58.49
2022-08-31T07:03:36.342Z,62.84
2022-08-31T07:04:36.334Z,56.72
2022-08-31T07:05:36.326Z,46.89
2022-08-31T07:06:36.302Z,44.63
2022-08-31T07:07:36.292Z,54.46
2022-08-31T07:08:36.274Z,52.21
2022-08-31T07:09:36.282Z,56.56
2022-08-31T07:10:36.258Z,60.91
2022-08-31T07:11:37.480Z,44.47
2022-08-31T07:12:36.227Z,60.91
2022-08-31T07:13:36.219Z,58.49
2022-08-31T07:14:36.200Z,56.24
2022-08-31T07:15:36.191Z,60.59
2022-08-31T07:16:36.290Z,56.72
2022-08-31T07:17:36.171Z,46.73
2022-08-31T07:18:36.148Z,52.37
2022-08-31T07:19:36.140Z,60.75
2022-08-31T07:20:36.124Z,56.72
2022-08-31T07:21:36.113Z,58.81
2022-08-31T07:22:36.097Z,61.39
2022-08-31T07:23:36.096Z,45.44
2022-08-31T07:24:36.074Z,59.46
2022-08-31T07:25:36.065Z,60.42
2022-08-31T07:26:36.662Z,45.76
2022-08-31T07:27:36.044Z,59.14
2022-08-31T07:28:36.022Z,60.10
2022-08-31T07:29:36.030Z,51.72
2022-08-31T07:30:36.033Z,53.82
2022-08-31T07:31:36.017Z,56.88
2022-08-31T07:32:35.974Z,48.34
2022-08-31T07:33:35.960Z,60.59
2022-08-31T07:34:36.049Z,61.07
2022-08-31T07:35:35.990Z,48.98
2022-08-31T07:36:35.926Z,53.01
2022-08-31T07:37:35.914Z,60.26
2022-08-31T07:38:35.914Z,48.82
2022-08-31T07:39:35.886Z,58.97
2022-08-31T07:40:35.944Z,57.36
2022-08-31T07:41:35.883Z,49.95
2022-08-31T07:42:35.852Z,60.42
2022-08-31T07:43:35.839Z,60.42
2022-08-31T07:44:35.828Z,52.69
2022-08-31T07:45:39.227Z,61.55
2022-08-31T07:46:35.835Z,56.72
2022-08-31T07:47:35.800Z,48.50
2022-08-31T07:48:35.777Z,55.91
2022-08-31T07:49:35.768Z,56.72
2022-08-31T07:50:35.752Z,48.02
2022-08-31T07:51:35.748Z,51.56
2022-08-31T07:52:35.730Z,59.78
2022-08-31T07:53:35.729Z,42.70
2022-08-31T07:54:35.704Z,62.04
2022-08-31T07:55:35.692Z,62.52
2022-08-31T07:56:35.679Z,55.43
2022-08-31T07:57:35.682Z,54.30
2022-08-31T07:58:35.662Z,59.78
2022-08-31T07:59:35.662Z,51.72
2022-08-31T08:00:35.629Z,60.42
2022-08-31T08:01:36.011Z,60.75
2022-08-31T08:02:35.697Z,57.20
2022-08-31T08:03:35.591Z,59.30
2022-08-31T08:04:35.581Z,61.71
2022-08-31T08:05:35.589Z,51.40
2022-08-31T08:06:35.554Z,66.06
2022-08-31T08:07:35.559Z,61.07
2022-08-31T08:08:35.530Z,53.01
2022-08-31T08:09:35.521Z,61.55
2022-08-31T08:10:35.506Z,62.20
2022-08-31T08:11:35.501Z,56.40
2022-08-31T08:12:35.492Z,58.01
2022-08-31T08:13:35.469Z,62.84
2022-08-31T08:14:35.455Z,47.53
2022-08-31T08:15:35.966Z,54.62
2022-08-31T08:16:35.511Z,60.91
2022-08-31T08:17:35.426Z,48.66
2022-08-31T08:18:35.408Z,60.26
2022-08-31T08:19:35.400Z,60.10
2022-08-31T08:20:37.989Z,48.82
2022-08-31T08:21:35.369Z,57.36
2022-08-31T08:22:51.464Z,58.33
2022-08-31T08:23:35.356Z,48.66
2022-08-31T08:24:35.326Z,48.66
2022-08-31T08:25:35.321Z,63.81
2022-08-31T08:26:35.305Z,49.79
2022-08-31T08:27:35.288Z,51.72
2022-08-31T08:28:39.772Z,52.37
2022-08-31T08:29:35.287Z,50.43
2022-08-31T08:30:35.264Z,56.24
2022-08-31T08:31:35.299Z,61.55
2022-08-31T08:32:35.236Z,58.17
2022-08-31T08:33:35.221Z,55.75
2022-08-31T08:34:35.201Z,64.61
2022-08-31T08:35:35.200Z,48.02
2022-08-31T08:36:35.177Z,48.66
2022-08-31T08:37:56.797Z,55.59
2022-08-31T08:38:35.158Z,58.01
2022-08-31T08:39:35.166Z,61.07
2022-08-31T08:40:35.181Z,65.10
2022-08-31T08:41:35.121Z,44.31
2022-08-31T08:42:35.102Z,58.17
2022-08-31T08:43:35.090Z,57.85
2022-08-31T08:44:35.077Z,43.83
2022-08-31T08:45:35.148Z,59.46
2022-08-31T08:46:35.732Z,60.91
2022-08-31T08:47:37.997Z,56.24
2022-08-31T08:48:35.023Z,62.04
2022-08-31T08:49:35.014Z,58.01
2022-08-31T08:50:35.002Z,48.02
2022-08-31T08:51:35.002Z,57.20
2022-08-31T08:52:34.973Z,59.46
2022-08-31T08:53:34.974Z,57.52
2022-08-31T08:54:34.952Z,61.23
2022-08-31T08:55:34.936Z,56.56
2022-08-31T08:56:34.923Z,57.04
2022-08-31T08:57:34.918Z,53.66
2022-08-31T08:58:34.900Z,56.24
2022-08-31T08:59:34.909Z,45.60
2022-08-31T09:00:34.874Z,57.69
2022-08-31T09:01:34.903Z,59.62
2022-08-31T09:02:34.930Z,55.75
2022-08-31T09:03:34.841Z,60.91
2022-08-31T09:04:34.830Z,61.23
2022-08-31T09:05:34.877Z,56.88
2022-08-31T09:06:45.383Z,57.52
2022-08-31T09:07:34.790Z,56.40
2022-08-31T09:08:34.777Z,52.21
2022-08-31T09:09:34.766Z,58.49
2022-08-31T09:10:34.752Z,56.72
2022-08-31T09:11:34.754Z,56.56
2022-08-31T09:12:34.722Z,60.10
2022-08-31T09:13:34.712Z,57.69
2022-08-31T09:14:34.699Z,53.17
2022-08-31T09:15:34.684Z,57.52
2022-08-31T09:16:34.693Z,59.62
2022-08-31T09:17:34.669Z,45.60
2022-08-31T09:18:34.646Z,53.50
2022-08-31T09:19:34.634Z,56.40
2022-08-31T09:20:34.628Z,56.88
2022-08-31T09:21:34.614Z,42.06
2022-08-31T09:22:34.598Z,58.49
2022-08-31T09:23:34.602Z,58.49
2022-08-31T09:24:34.627Z,58.33
2022-08-31T09:25:34.577Z,58.17
2022-08-31T09:26:34.555Z,56.88
2022-08-31T09:27:34.544Z,63.16
2022-08-31T09:28:34.527Z,59.78
2022-08-31T09:29:34.533Z,52.53
2022-08-31T09:30:34.501Z,54.46
2022-08-31T09:31:34.721Z,58.01
2022-08-31T09:32:34.487Z,57.69
2022-08-31T09:33:34.463Z,59.14
2022-08-31T09:34:34.466Z,57.20
2022-08-31T09:35:34.455Z,48.82
2022-08-31T09:36:34.423Z,62.04
2022-08-31T09:37:34.415Z,55.75
2022-08-31T09:38:34.401Z,58.81
2022-08-31T09:39:37.065Z,57.04
2022-08-31T09:40:34.400Z,58.97
2022-08-31T09:41:34.380Z,58.01
2022-08-31T09:42:34.346Z,61.23
2022-08-31T09:43:34.336Z,59.46
2022-08-31T09:44:34.325Z,50.27
2022-08-31T09:45:35.050Z,58.81
2022-08-31T09:46:34.296Z,57.04
2022-08-31T09:47:34.304Z,46.08
2022-08-31T09:48:34.278Z,61.71
2022-08-31T09:49:34.284Z,61.87
2022-08-31T09:50:34.774Z,56.24
2022-08-31T09:51:34.233Z,57.85
2022-08-31T09:52:34.223Z,60.10
2022-08-31T09:53:34.221Z,47.70
2022-08-31T09:54:34.195Z,54.62
2022-08-31T09:55:34.186Z,59.30
2022-08-31T09:56:34.170Z,52.37
2022-08-31T09:57:34.159Z,60.75
2022-08-31T09:58:34.142Z,59.62
2022-08-31T09:59:34.148Z,61.39
2022-08-31T10:00:34.120Z,60.75
2022-08-31T10:01:34.197Z,58.97
2022-08-31T10:02:34.098Z,56.07
2022-08-31T10:03:34.082Z,56.88
2022-08-31T10:04:34.086Z,56.72
2022-08-31T10:05:34.118Z,58.49
2022-08-31T10:06:34.048Z,61.55
2022-08-31T10:07:34.042Z,59.62
2022-08-31T10:08:34.024Z,51.88
2022-08-31T10:09:34.007Z,56.88
2022-08-31T10:10:33.996Z,58.97
2022-08-31T10:11:34.009Z,58.97
2022-08-31T10:12:33.972Z,58.33
2022-08-31T10:13:33.975Z,58.17
2022-08-31T10:14:33.945Z,53.01
2022-08-31T10:15:34.008Z,55.59
2022-08-31T10:16:33.917Z,58.65
2022-08-31T10:17:33.925Z,59.30
2022-08-31T10:18:33.897Z,50.43
2022-08-31T10:19:33.884Z,58.01
2022-08-31T10:20:33.867Z,57.52
2022-08-31T10:21:33.857Z,60.42
2022-08-31T10:22:33.843Z,58.65
2022-08-31T10:23:33.845Z,48.18
2022-08-31T10:24:33.832Z,59.46
2022-08-31T10:25:33.805Z,53.01
2022-08-31T10:26:33.795Z,48.02
2022-08-31T10:27:33.781Z,59.46
2022-08-31T10:28:33.773Z,62.52
2022-08-31T10:29:33.765Z,55.59
2022-08-31T10:30:33.744Z,60.59
2022-08-31T10:31:33.758Z,59.94
2022-08-31T10:32:33.725Z,51.08
2022-08-31T10:33:33.704Z,56.56
2022-08-31T10:34:33.697Z,54.62
2022-08-31T10:35:33.699Z,60.26
2022-08-31T10:36:33.665Z,53.50
2022-08-31T10:37:33.657Z,53.98
2022-08-31T10:38:33.639Z,51.08
2022-08-31T10:39:33.629Z,60.59
2022-08-31T10:40:33.690Z,63.33
2022-08-31T10:41:33.621Z,54.46
2022-08-31T10:42:33.593Z,46.57
2022-08-31T10:43:33.578Z,57.52
2022-08-31T10:44:33.566Z,57.69
2022-08-31T10:45:33.551Z,55.59
2022-08-31T10:46:33.640Z,58.01
2022-08-31T10:47:34.139Z,52.53
2022-08-31T10:48:33.516Z,66.06
2022-08-31T10:49:33.508Z,58.01
2022-08-31T10:50:33.498Z,55.59
2022-08-31T10:51:33.476Z,53.50
2022-08-31T10:52:33.464Z,56.24
2022-08-31T10:53:34.960Z,61.71
2022-08-31T10:54:33.450Z,59.78
2022-08-31T10:55:33.427Z,62.04
2022-08-31T10:56:33.417Z,45.76
2022-08-31T10:57:33.404Z,48.50
2022-08-31T10:58:33.390Z,53.66
2022-08-31T10:59:33.395Z,56.88
2022-08-31T11:00:33.367Z,52.69
2022-08-31T11:01:33.384Z,60.10
2022-08-31T11:02:33.343Z,59.94
2022-08-31T11:03:33.365Z,57.69
2022-08-31T11:04:33.415Z,56.07
2022-08-31T11:05:33.334Z,54.62
2022-08-31T11:06:33.293Z,55.11
2022-08-31T11:07:33.298Z,56.07
2022-08-31T11:08:33.298Z,55.59
2022-08-31T11:09:33.253Z,61.39
2022-08-31T11:10:33.254Z,59.14
2022-08-31T11:11:33.252Z,50.92
2022-08-31T11:12:33.217Z,53.17
2022-08-31T11:13:33.203Z,58.97
2022-08-31T11:14:33.190Z,57.52
2022-08-31T11:15:33.245Z,64.13
2022-08-31T11:16:33.163Z,55.59
2022-08-31T11:17:33.171Z,53.66
2022-08-31T11:18:33.142Z,60.91
2022-08-31T11:19:33.128Z,63.49
2022-08-31T11:20:33.119Z,56.88
2022-08-31T11:21:33.113Z,55.91
2022-08-31T11:22:33.096Z,59.78
2022-08-31T11:23:33.109Z,50.60
2022-08-31T11:24:37.176Z,49.63
2022-08-31T11:25:33.059Z,56.72
2022-08-31T11:26:33.042Z,54.79
2022-08-31T11:27:33.036Z,52.05
2022-08-31T11:28:33.021Z,60.75
2022-08-31T11:29:33.019Z,56.72
2022-08-31T11:30:32.992Z,53.66
2022-08-31T11:31:33.032Z,60.10
2022-08-31T11:32:32.971Z,48.66
2022-08-31T11:33:32.956Z,55.91
2022-08-31T11:34:32.942Z,67.35
2022-08-31T11:35:32.941Z,49.79
2022-08-31T11:36:32.926Z,59.46
2022-08-31T11:37:32.908Z,56.88
2022-08-31T11:38:32.893Z,74.77
2022-08-31T11:39:32.882Z,59.30
2022-08-31T11:40:32.973Z,58.01
2022-08-31T11:41:32.862Z,58.49
2022-08-31T11:42:32.851Z,59.78
2022-08-31T11:43:32.834Z,62.68
2022-08-31T11:44:33.014Z,54.46
2022-08-31T11:45:32.811Z,60.42
2022-08-31T11:46:32.845Z,59.78
2022-08-31T11:47:32.788Z,53.33
2022-08-31T11:48:32.783Z,48.98
2022-08-31T11:49:32.752Z,50.76
2022-08-31T11:50:32.747Z,50.60
2022-08-31T11:51:36.122Z,53.66
2022-08-31T11:52:32.727Z,56.88
2022-08-31T11:53:32.717Z,53.82
2022-08-31T11:54:32.696Z,59.30
2022-08-31T11:55:32.684Z,58.49
2022-08-31T11:56:32.669Z,47.86
2022-08-31T11:57:37.506Z,56.72
2022-08-31T11:58:32.657Z,59.78
2022-08-31T11:59:32.829Z,50.60
2022-08-31T12:00:32.628Z,54.14
2022-08-31T12:01:32.606Z,53.17
2022-08-31T12:02:32.664Z,56.72
2022-08-31T12:03:32.582Z,58.65
2022-08-31T12:04:32.576Z,59.46
2022-08-31T12:05:32.620Z,53.50
2022-08-31T12:06:32.548Z,55.27
2022-08-31T12:07:32.539Z,56.07
2022-08-31T12:08:32.519Z,50.11
2022-08-31T12:09:32.508Z,60.91
2022-08-31T12:10:32.497Z,56.56
2022-08-31T12:11:32.505Z,56.72
2022-08-31T12:12:32.470Z,55.11
2022-08-31T12:13:32.455Z,58.97
2022-08-31T12:14:32.448Z,61.07
2022-08-31T12:15:32.500Z,53.66
2022-08-31T12:16:32.421Z,57.20
2022-08-31T12:17:32.420Z,58.97
2022-08-31T12:18:32.399Z,57.04
2022-08-31T12:19:32.385Z,58.01
2022-08-31T12:20:32.374Z,50.60
2022-08-31T12:21:32.357Z,56.40
2022-08-31T12:22:32.348Z,58.97
2022-08-31T12:23:32.487Z,53.66
2022-08-31T12:24:32.326Z,55.59
2022-08-31T12:25:32.322Z,61.07
2022-08-31T12:26:32.301Z,52.21
2022-08-31T12:27:32.283Z,56.88
2022-08-31T12:28:32.273Z,57.52
2022-08-31T12:29:32.542Z,41.89
2022-08-31T12:30:32.249Z,48.02
2022-08-31T12:31:32.273Z,55.75
2022-08-31T12:32:32.227Z,53.82
2022-08-31T12:33:32.216Z,58.49
2022-08-31T12:34:33.014Z,55.75
2022-08-31T12:35:32.206Z,55.43
2022-08-31T12:36:32.181Z,53.17
2022-08-31T12:37:32.167Z,60.10
2022-08-31T12:38:32.159Z,56.07
2022-08-31T12:39:33.027Z,55.11
2022-08-31T12:40:32.155Z,56.24
2022-08-31T12:41:32.128Z,50.92
2022-08-31T12:42:32.107Z,46.73
2022-08-31T12:43:32.089Z,52.85
2022-08-31T12:44:32.897Z,43.67
2022-08-31T12:45:32.072Z,54.79
2022-08-31T12:46:32.148Z,55.27
2022-08-31T12:47:32.052Z,51.56
2022-08-31T12:48:32.029Z,53.33
2022-08-31T12:49:33.002Z,52.37
2022-08-31T12:50:32.010Z,51.56
2022-08-31T12:51:32.004Z,58.33
2022-08-31T12:52:31.976Z,56.88